createdAt,value
2024-02-14T02:00:28.543Z,43.62
2024-02-14T02:01:00.803Z,43.62
2024-02-14T02:02:52.649Z,43.72
2024-02-14T02:03:24.998Z,43.72
2024-02-14T02:05:17.603Z,43.72
2024-02-14T02:08:37.988Z,43.62
2024-02-14T02:09:11.078Z,43.52
2024-02-14T02:09:43.479Z,43.62
2024-02-14T02:10:22.003Z,43.72
2024-02-14T02:11:05.982Z,43.62
2024-02-14T02:12:40.787Z,43.72
2024-02-14T02:13:17.753Z,43.62
2024-02-14T02:13:55.788Z,43.62
2024-02-14T02:15:43.338Z,43.72
2024-02-14T02:16:52.848Z,43.72
2024-02-14T02:17:24.887Z,43.72
2024-02-14T02:19:11.523Z,43.72
2024-02-14T02:19:43.967Z,43.72
2024-02-14T02:20:16.357Z,43.72
2024-02-14T02:22:41.827Z,43.62
2024-02-14T02:23:20.357Z,43.72
2024-02-14T02:23:58.390Z,43.72
2024-02-14T02:24:36.400Z,43.72
2024-02-14T02:25:34.545Z,43.72
2024-02-14T02:28:17.448Z,43.62
2024-02-14T02:28:49.394Z,43.62
2024-02-14T02:31:00.706Z,43.62
2024-02-14T02:31:15.946Z,43.62
2024-02-14T02:33:02.590Z,43.62
2024-02-14T02:34:00.859Z,43.62
2024-02-14T02:34:38.976Z,43.62
2024-02-14T02:35:31.165Z,43.72
2024-02-14T02:36:03.317Z,43.72
2024-02-14T02:37:42.946Z,43.72
2024-02-14T02:38:14.953Z,43.72
2024-02-14T02:38:46.986Z,43.72
2024-02-14T02:39:24.996Z,43.62
2024-02-14T02:40:03.034Z,43.62
2024-02-14T02:40:35.829Z,43.72
2024-02-14T02:41:26.715Z,43.72
2024-02-14T02:41:59.386Z,43.72
2024-02-14T02:42:57.349Z,43.72
2024-02-14T02:44:42.592Z,43.72
2024-02-14T02:45:21.109Z,43.72
2024-02-14T02:45:59.633Z,43.72
2024-02-14T02:46:38.164Z,43.72
2024-02-14T02:47:10.641Z,43.72
2024-02-14T02:47:42.682Z,43.72
2024-02-14T02:49:00.406Z,43.72
2024-02-14T02:49:32.453Z,43.72
2024-02-14T02:50:10.465Z,43.72
2024-02-14T02:50:49.010Z,43.72
2024-02-14T02:51:27.030Z,43.72
2024-02-14T02:52:24.510Z,43.72
2024-02-14T02:54:11.093Z,43.62
2024-02-14T02:54:49.620Z,43.62
2024-02-14T02:55:28.130Z,43.72
2024-02-14T02:56:24.846Z,43.72
2024-02-14T02:56:56.883Z,43.72
2024-02-14T02:57:35.428Z,43.72
2024-02-14T02:58:13.977Z,43.62
2024-02-14T02:58:52.477Z,43.72
2024-02-14T02:59:24.483Z,43.72
2024-02-14T03:00:03.111Z,43.72
2024-02-14T03:00:35.161Z,43.72
2024-02-14T03:01:08.449Z,43.72
2024-02-14T03:01:46.951Z,43.72
2024-02-14T03:02:25.137Z,43.72
2024-02-14T03:04:04.825Z,43.72
2024-02-14T03:04:52.966Z,43.72
2024-02-14T03:05:33.924Z,43.72
2024-02-14T03:06:15.049Z,43.72
2024-02-14T03:06:53.588Z,43.72
2024-02-14T03:07:31.740Z,43.72
2024-02-14T03:08:03.691Z,43.72
2024-02-14T03:08:41.758Z,43.62
2024-02-14T03:09:13.796Z,43.72
2024-02-14T03:10:04.374Z,43.72
2024-02-14T03:10:42.908Z,43.72
2024-02-14T03:11:20.938Z,43.82
2024-02-14T03:11:52.948Z,43.82
2024-02-14T03:12:30.973Z,43.72
2024-02-14T03:13:28.105Z,43.72
2024-02-14T03:14:06.144Z,43.62
2024-02-14T03:14:44.723Z,43.62
2024-02-14T03:15:23.256Z,43.62
2024-02-14T03:16:38.238Z,43.72
2024-02-14T03:17:16.757Z,43.72
2024-02-14T03:17:54.887Z,43.72
2024-02-14T03:18:33.618Z,43.72
2024-02-14T03:19:11.770Z,43.72
2024-02-14T03:19:51.330Z,43.72
2024-02-14T03:20:50.115Z,43.82
2024-02-14T03:21:46.770Z,43.72
2024-02-14T03:22:25.302Z,43.72
2024-02-14T03:23:03.329Z,43.72
2024-02-14T03:25:11.102Z,43.72
2024-02-14T03:26:08.603Z,43.72
2024-02-14T03:27:05.945Z,43.72
2024-02-14T03:28:04.510Z,43.72
2024-02-14T03:28:42.539Z,43.82
2024-02-14T03:29:31.105Z,43.72
2024-02-14T03:30:03.112Z,43.72
2024-02-14T03:30:36.346Z,43.72
2024-02-14T03:33:26.251Z,43.72
2024-02-14T03:34:07.584Z,43.72
2024-02-14T03:34:47.924Z,43.72
2024-02-14T03:35:25.983Z,43.62
2024-02-14T03:36:04.182Z,43.72
2024-02-14T03:37:04.717Z,43.62
2024-02-14T03:38:20.980Z,43.62
2024-02-14T03:38:59.032Z,43.72
2024-02-14T03:40:14.325Z,43.72
2024-02-14T03:42:09.678Z,43.62
2024-02-14T03:43:11.097Z,43.62
2024-02-14T03:44:29.555Z,43.72
2024-02-14T03:45:08.093Z,43.62
2024-02-14T03:45:46.091Z,43.62
2024-02-14T03:46:24.123Z,43.62
2024-02-14T03:47:15.025Z,43.72
2024-02-14T03:47:47.167Z,43.72
2024-02-14T03:48:25.328Z,43.72
2024-02-14T03:49:46.994Z,43.72
2024-02-14T03:50:20.237Z,43.72
2024-02-14T03:51:10.956Z,43.82
2024-02-14T03:52:33.477Z,43.82
2024-02-14T03:53:11.485Z,43.72
2024-02-14T03:54:17.095Z,43.72
2024-02-14T03:54:57.189Z,43.72
2024-02-14T03:55:53.859Z,43.72
2024-02-14T03:56:32.000Z,43.72
2024-02-14T03:57:10.628Z,43.72
2024-02-14T03:57:50.170Z,43.72
2024-02-14T03:58:31.202Z,43.72
2024-02-14T03:59:09.719Z,43.72
2024-02-14T04:00:06.449Z,43.72
2024-02-14T04:01:54.018Z,43.72
2024-02-14T04:02:44.649Z,43.72
2024-02-14T04:03:50.380Z,43.72
2024-02-14T04:04:28.445Z,43.62
2024-02-14T04:05:06.424Z,43.72
2024-02-14T04:05:38.835Z,43.72
2024-02-14T04:06:48.114Z,43.72
2024-02-14T04:07:26.636Z,43.72
2024-02-14T04:09:13.201Z,43.72
2024-02-14T04:09:51.747Z,43.72
2024-02-14T04:10:24.039Z,43.72
2024-02-14T04:12:36.089Z,43.72
2024-02-14T04:13:15.582Z,43.72
2024-02-14T04:13:53.596Z,43.82
2024-02-14T04:14:25.648Z,43.72
2024-02-14T04:16:08.006Z,43.72
2024-02-14T04:16:46.027Z,43.72
2024-02-14T04:17:18.368Z,43.72
2024-02-14T04:17:50.487Z,43.72
2024-02-14T04:18:29.333Z,43.72
2024-02-14T04:19:01.905Z,43.72
2024-02-14T04:20:19.837Z,43.72
2024-02-14T04:20:58.396Z,43.72
2024-02-14T04:21:38.172Z,43.72
2024-02-14T04:23:04.681Z,43.62
2024-02-14T04:23:37.033Z,43.62
2024-02-14T04:25:11.216Z,43.62
2024-02-14T04:25:43.199Z,43.72
2024-02-14T04:26:58.596Z,43.72
2024-02-14T04:27:30.570Z,43.72
2024-02-14T04:28:07.401Z,43.72
2024-02-14T04:28:42.240Z,43.82
2024-02-14T04:29:51.797Z,43.72
2024-02-14T04:31:18.262Z,43.72
2024-02-14T04:32:14.937Z,43.72
2024-02-14T04:32:47.327Z,43.72
2024-02-14T04:33:58.357Z,43.62
2024-02-14T04:35:19.228Z,43.62
2024-02-14T04:35:57.294Z,43.62
2024-02-14T04:36:29.244Z,43.62
2024-02-14T04:37:01.233Z,43.72
2024-02-14T04:37:39.263Z,43.72
2024-02-14T04:38:11.592Z,43.62
2024-02-14T04:39:39.501Z,43.72
2024-02-14T04:41:11.353Z,43.72
2024-02-14T04:42:45.652Z,43.72
2024-02-14T04:43:39.460Z,43.72
2024-02-14T05:14:33.184Z,43.72
2024-02-14T05:15:11.321Z,43.62
2024-02-14T05:15:49.848Z,43.72
2024-02-14T05:16:43.885Z,43.62
2024-02-14T05:18:30.547Z,43.52
2024-02-14T05:19:11.678Z,43.52
2024-02-14T05:19:52.843Z,43.62
2024-02-14T05:23:20.082Z,43.62
2024-02-14T05:24:09.622Z,43.62
2024-02-14T05:24:52.625Z,43.52
2024-02-14T05:26:52.633Z,43.52
2024-02-14T05:27:59.608Z,43.62
2024-02-14T05:28:37.637Z,43.62
2024-02-14T05:30:24.259Z,43.62
2024-02-14T05:30:56.237Z,43.62
2024-02-14T05:31:28.215Z,43.62
2024-02-14T05:33:01.114Z,43.62
2024-02-14T05:34:19.562Z,43.62
2024-02-14T05:34:58.473Z,43.62
2024-02-14T05:35:30.810Z,43.62
2024-02-14T05:38:44.114Z,43.62
2024-02-14T05:41:09.193Z,43.62
2024-02-14T05:42:07.375Z,43.62
2024-02-14T05:42:58.265Z,43.62
2024-02-14T05:43:39.286Z,43.62
2024-02-14T05:44:49.390Z,43.62
2024-02-14T05:45:45.997Z,43.62
2024-02-14T05:46:36.940Z,43.62
2024-02-14T05:47:08.923Z,43.62
2024-02-14T05:47:47.055Z,43.62
2024-02-14T05:50:10.917Z,43.62
2024-02-14T05:51:01.908Z,43.62
2024-02-14T05:51:39.906Z,43.62
2024-02-14T05:52:18.421Z,43.72
2024-02-14T05:52:56.456Z,43.62
2024-02-14T05:53:34.987Z,43.62
2024-02-14T05:54:16.010Z,43.62
2024-02-14T05:55:49.882Z,43.72
2024-02-14T05:56:21.848Z,43.72
2024-02-14T05:57:24.898Z,43.62
2024-02-14T05:57:57.193Z,43.62
2024-02-14T05:58:42.247Z,43.62
2024-02-14T05:59:20.740Z,43.62
2024-02-14T05:59:58.835Z,43.62
2024-02-14T06:00:37.762Z,43.62
2024-02-14T06:01:10.012Z,43.62
2024-02-14T06:02:56.590Z,43.62
2024-02-14T06:03:28.656Z,43.72
2024-02-14T06:04:09.792Z,43.62
2024-02-14T06:04:48.404Z,43.62
2024-02-14T06:07:12.547Z,43.62
2024-02-14T06:07:59.858Z,43.62
2024-02-14T06:09:16.266Z,43.62
2024-02-14T06:09:48.228Z,43.62
2024-02-14T06:11:33.830Z,43.62
2024-02-14T06:13:16.472Z,43.62
2024-02-14T06:13:48.452Z,43.62
2024-02-14T06:14:26.450Z,43.62
2024-02-14T06:15:04.500Z,43.62
2024-02-14T06:16:01.436Z,43.62
2024-02-14T06:16:33.433Z,43.62
2024-02-14T06:17:11.944Z,43.62
2024-02-14T06:17:55.636Z,43.72
2024-02-14T06:18:16.760Z,43.72
2024-02-14T06:18:49.042Z,43.72
2024-02-14T06:19:21.214Z,43.62
2024-02-14T06:20:26.049Z,43.72
2024-02-14T06:20:58.030Z,43.72
2024-02-14T06:21:29.989Z,43.72
2024-02-14T06:22:01.966Z,43.72
2024-02-14T06:22:33.951Z,43.72
2024-02-14T06:23:06.426Z,43.62
2024-02-14T06:23:57.144Z,43.62
2024-02-14T06:24:29.096Z,43.62
2024-02-14T06:25:07.643Z,43.62
2024-02-14T06:25:39.644Z,43.62
2024-02-14T06:26:17.657Z,43.62
2024-02-14T06:26:55.687Z,43.62
2024-02-14T06:27:46.303Z,43.62
2024-02-14T06:28:24.326Z,43.62
2024-02-14T06:28:56.311Z,43.62
2024-02-14T06:30:05.574Z,43.62
2024-02-14T06:30:37.556Z,43.50
2024-02-14T06:31:15.638Z,43.52
2024-02-14T06:31:47.654Z,43.62
2024-02-14T06:32:21.131Z,43.72
2024-02-14T06:32:53.161Z,43.62
2024-02-14T06:33:25.274Z,43.62
2024-02-14T06:33:57.500Z,43.62
2024-02-14T06:34:35.958Z,43.62
2024-02-14T06:35:14.225Z,43.72
2024-02-14T06:35:46.413Z,43.62
2024-02-14T06:36:24.562Z,43.62
2024-02-14T06:36:56.552Z,43.62
2024-02-14T06:37:28.543Z,43.62
2024-02-14T06:38:04.639Z,43.62
2024-02-14T06:38:43.488Z,43.50
2024-02-14T06:39:15.322Z,43.62
2024-02-14T06:39:47.131Z,43.62
2024-02-14T06:40:25.067Z,43.62
2024-02-14T06:41:21.531Z,43.62
2024-02-14T06:41:59.454Z,43.72
2024-02-14T06:42:37.371Z,43.72
2024-02-14T06:43:15.778Z,43.72
2024-02-14T06:43:53.717Z,43.62
2024-02-14T06:44:35.541Z,43.62
2024-02-14T06:45:08.276Z,43.62
2024-02-14T06:45:40.198Z,43.62
2024-02-14T06:46:18.604Z,43.62
2024-02-14T06:46:56.518Z,43.62
2024-02-14T06:47:28.479Z,43.62
2024-02-14T06:48:01.171Z,43.62
2024-02-14T06:48:33.599Z,43.62
2024-02-14T06:49:06.279Z,43.62
2024-02-14T06:49:38.567Z,43.62
2024-02-14T06:50:11.720Z,43.62
2024-02-14T06:50:43.712Z,43.62
2024-02-14T06:51:22.285Z,43.62
2024-02-14T06:52:12.694Z,43.72
2024-02-14T06:52:44.519Z,43.72
2024-02-14T06:53:16.362Z,43.72
2024-02-14T06:53:54.303Z,43.72
2024-02-14T06:54:32.193Z,43.72
2024-02-14T06:55:04.006Z,43.62
2024-02-14T06:55:35.833Z,43.62
2024-02-14T06:56:07.655Z,43.62
2024-02-14T06:56:39.537Z,43.62
2024-02-14T06:57:11.369Z,43.72
2024-02-14T06:57:43.149Z,43.72
2024-02-14T06:58:15.331Z,43.72
2024-02-14T06:59:06.032Z,43.72
2024-02-14T07:00:24.195Z,43.72
2024-02-14T07:00:56.126Z,43.72
2024-02-14T07:01:34.026Z,43.72
2024-02-14T07:02:12.850Z,43.72
2024-02-14T07:02:42.579Z,43.62
2024-02-14T07:03:14.534Z,43.62
2024-02-14T07:05:01.614Z,43.82
2024-02-14T07:05:39.629Z,43.82
2024-02-14T07:06:11.541Z,43.72
2024-02-14T07:06:43.543Z,43.72
2024-02-14T07:07:15.406Z,43.72
2024-02-14T07:07:47.235Z,43.72
2024-02-14T07:08:25.334Z,43.72
2024-02-14T07:09:15.832Z,43.72
2024-02-14T07:09:54.233Z,43.72
2024-02-14T07:10:26.416Z,43.72
2024-02-14T07:11:04.945Z,43.72
2024-02-14T07:12:02.661Z,43.82
2024-02-14T07:12:34.529Z,43.82
2024-02-14T07:13:12.913Z,43.72
2024-02-14T07:13:44.742Z,43.72
2024-02-14T07:14:16.571Z,43.62
2024-02-14T07:15:07.136Z,43.62
2024-02-14T07:15:38.978Z,43.60
2024-02-14T07:16:12.077Z,43.62
2024-02-14T07:16:43.958Z,43.62
2024-02-14T07:17:16.086Z,43.62
2024-02-14T07:17:47.997Z,43.62
2024-02-14T07:18:27.247Z,43.72
2024-02-14T07:18:59.237Z,43.82
2024-02-14T07:20:05.115Z,43.82
2024-02-14T07:20:36.982Z,43.92
2024-02-14T07:21:08.872Z,43.82
2024-02-14T07:21:46.784Z,43.80
2024-02-14T07:22:24.701Z,43.70
2024-02-14T07:23:22.281Z,43.60
2024-02-14T07:23:54.143Z,43.50
2024-02-14T07:24:25.949Z,43.50
2024-02-14T07:25:35.620Z,43.60
2024-02-14T07:26:07.430Z,43.50
2024-02-14T07:26:39.279Z,43.60
2024-02-14T07:27:29.682Z,43.60
2024-02-14T07:28:01.839Z,43.70
2024-02-14T07:28:53.178Z,43.70
2024-02-14T07:29:31.218Z,43.60
